sensor_id;sensor_type;location;lat;lon;timestamp;pressure;altitude;pressure_sealevel;temperature
54746;BMP180;40640;48.130;11.356;2022-12-29T00:02:05;95385.00;;;6.30
54746;BMP180;40640;48.130;11.356;2022-12-29T00:06:07;95398.00;;;6.50
54746;BMP180;40640;48.130;11.356;2022-12-29T00:10:12;95383.00;;;6.50
54746;BMP180;40640;48.130;11.356;2022-12-29T00:14:15;95380.00;;;6.40
54746;BMP180;40640;48.130;11.356;2022-12-29T00:18:35;95384.00;;;6.60
54746;BMP180;40640;48.130;11.356;2022-12-29T00:22:38;95381.00;;;6.60
54746;BMP180;40640;48.130;11.356;2022-12-29T00:27:10;95373.00;;;6.50
54746;BMP180;40640;48.130;11.356;2022-12-29T00:31:36;95363.00;;;6.40
54746;BMP180;40640;48.130;11.356;2022-12-29T00:35:59;95366.00;;;6.30
54746;BMP180;40640;48.130;11.356;2022-12-29T00:40:04;95364.00;;;6.30
54746;BMP180;40640;48.130;11.356;2022-12-29T00:44:26;95373.00;;;6.40
54746;BMP180;40640;48.130;11.356;2022-12-29T00:48:28;95354.00;;;6.30
54746;BMP180;40640;48.130;11.356;2022-12-29T00:52:49;95359.00;;;6.30
54746;BMP180;40640;48.130;11.356;2022-12-29T00:56:52;95370.00;;;6.40
54746;BMP180;40640;48.130;11.356;2022-12-29T01:01:02;95362.00;;;6.30
54746;BMP180;40640;48.130;11.356;2022-12-29T01:05:07;95367.00;;;6.20
54746;BMP180;40640;48.130;11.356;2022-12-29T01:09:12;95374.00;;;6.50
54746;BMP180;40640;48.130;11.356;2022-12-29T01:13:32;95379.00;;;6.30
54746;BMP180;40640;48.130;11.356;2022-12-29T01:17:36;95373.00;;;6.20
54746;BMP180;40640;48.130;11.356;2022-12-29T01:21:39;95373.00;;;6.30
54746;BMP180;40640;48.130;11.356;2022-12-29T01:25:42;95371.00;;;6.40
54746;BMP180;40640;48.130;11.356;2022-12-29T01:29:45;95379.00;;;6.40
54746;BMP180;40640;48.130;11.356;2022-12-29T01:33:49;95388.00;;;6.60
54746;BMP180;40640;48.130;11.356;2022-12-29T01:37:52;95387.00;;;6.50
54746;BMP180;40640;48.130;11.356;2022-12-29T01:41:55;95388.00;;;6.70
54746;BMP180;40640;48.130;11.356;2022-12-29T01:45:58;95394.00;;;6.60
54746;BMP180;40640;48.130;11.356;2022-12-29T01:50:06;95389.00;;;6.70
54746;BMP180;40640;48.130;11.356;2022-12-29T01:54:16;95377.00;;;6.70
54746;BMP180;40640;48.130;11.356;2022-12-29T01:58:23;95389.00;;;6.60
54746;BMP180;40640;48.130;11.356;2022-12-29T02:02:27;95374.00;;;6.50
54746;BMP180;40640;48.130;11.356;2022-12-29T02:06:39;95368.00;;;6.80
54746;BMP180;40640;48.130;11.356;2022-12-29T02:10:44;95364.00;;;6.90
54746;BMP180;40640;48.130;11.356;2022-12-29T02:14:49;95364.00;;;7.10
54746;BMP180;40640;48.130;11.356;2022-12-29T02:19:05;95363.00;;;6.90
54746;BMP180;40640;48.130;11.356;2022-12-29T02:28:09;95353.00;;;7.00
54746;BMP180;40640;48.130;11.356;2022-12-29T02:32:23;95356.00;;;7.10
54746;BMP180;40640;48.130;11.356;2022-12-29T02:36:34;95349.00;;;6.90
54746;BMP180;40640;48.130;11.356;2022-12-29T02:40:45;95353.00;;;6.90
54746;BMP180;40640;48.130;11.356;2022-12-29T02:44:56;95347.00;;;7.00
54746;BMP180;40640;48.130;11.356;2022-12-29T02:49:06;95337.00;;;6.90
54746;BMP180;40640;48.130;11.356;2022-12-29T02:53:13;95341.00;;;6.90
54746;BMP180;40640;48.130;11.356;2022-12-29T02:57:29;95327.00;;;6.60
54746;BMP180;40640;48.130;11.356;2022-12-29T03:01:45;95335.00;;;6.80
54746;BMP180;40640;48.130;11.356;2022-12-29T03:06:21;95335.00;;;6.70
54746;BMP180;40640;48.130;11.356;2022-12-29T03:10:33;95328.00;;;6.60
54746;BMP180;40640;48.130;11.356;2022-12-29T03:14:48;95332.00;;;6.60
54746;BMP180;40640;48.130;11.356;2022-12-29T03:19:15;95326.00;;;6.60
54746;BMP180;40640;48.130;11.356;2022-12-29T03:23:22;95321.00;;;6.70
54746;BMP180;40640;48.130;11.356;2022-12-29T03:27:29;95314.00;;;6.70
54746;BMP180;40640;48.130;11.356;2022-12-29T03:31:33;95317.00;;;6.80
54746;BMP180;40640;48.130;11.356;2022-12-29T03:35:40;95316.00;;;6.80
54746;BMP180;40640;48.130;11.356;2022-12-29T03:39:46;95316.00;;;6.80
54746;BMP180;40640;48.130;11.356;2022-12-29T03:43:49;95317.00;;;6.80
54746;BMP180;40640;48.130;11.356;2022-12-29T03:47:53;95304.00;;;6.90
54746;BMP180;40640;48.130;11.356;2022-12-29T03:51:56;95309.00;;;7.00
54746;BMP180;40640;48.130;11.356;2022-12-29T03:56:00;95310.00;;;7.00
54746;BMP180;40640;48.130;11.356;2022-12-29T04:00:05;95308.00;;;7.10
54746;BMP180;40640;48.130;11.356;2022-12-29T04:04:16;95306.00;;;7.00
54746;BMP180;40640;48.130;11.356;2022-12-29T04:08:19;95302.00;;;7.10
54746;BMP180;40640;48.130;11.356;2022-12-29T04:12:24;95308.00;;;7.10
54746;BMP180;40640;48.130;11.356;2022-12-29T04:16:27;95304.00;;;7.30
54746;BMP180;40640;48.130;11.356;2022-12-29T04:20:30;95310.00;;;7.30
54746;BMP180;40640;48.130;11.356;2022-12-29T04:24:51;95303.00;;;7.20
54746;BMP180;40640;48.130;11.356;2022-12-29T04:28:56;95304.00;;;7.20
54746;BMP180;40640;48.130;11.356;2022-12-29T04:33:07;95308.00;;;7.20
54746;BMP180;40640;48.130;11.356;2022-12-29T04:37:13;95302.00;;;7.20
54746;BMP180;40640;48.130;11.356;2022-12-29T04:41:16;95297.00;;;7.20
54746;BMP180;40640;48.130;11.356;2022-12-29T04:45:20;95291.00;;;7.30
54746;BMP180;40640;48.130;11.356;2022-12-29T04:49:27;95288.00;;;7.20
54746;BMP180;40640;48.130;11.356;2022-12-29T04:53:41;95305.00;;;7.30
54746;BMP180;40640;48.130;11.356;2022-12-29T04:57:44;95295.00;;;7.20
54746;BMP180;40640;48.130;11.356;2022-12-29T05:01:53;95298.00;;;7.30
54746;BMP180;40640;48.130;11.356;2022-12-29T05:05:56;95302.00;;;7.40
54746;BMP180;40640;48.130;11.356;2022-12-29T05:09:59;95304.00;;;7.30
54746;BMP180;40640;48.130;11.356;2022-12-29T05:14:04;95306.00;;;7.30
54746;BMP180;40640;48.130;11.356;2022-12-29T05:18:11;95308.00;;;7.40
54746;BMP180;40640;48.130;11.356;2022-12-29T05:22:14;95316.00;;;7.20
54746;BMP180;40640;48.130;11.356;2022-12-29T05:26:19;95311.00;;;7.30
54746;BMP180;40640;48.130;11.356;2022-12-29T05:30:33;95312.00;;;7.30
54746;BMP180;40640;48.130;11.356;2022-12-29T05:34:37;95304.00;;;7.30
54746;BMP180;40640;48.130;11.356;2022-12-29T05:38:40;95312.00;;;7.50
54746;BMP180;40640;48.130;11.356;2022-12-29T05:42:43;95296.00;;;7.60
54746;BMP180;40640;48.130;11.356;2022-12-29T05:46:58;95291.00;;;7.50
54746;BMP180;40640;48.130;11.356;2022-12-29T05:51:18;95298.00;;;7.60
54746;BMP180;40640;48.130;11.356;2022-12-29T05:55:22;95295.00;;;7.60
54746;BMP180;40640;48.130;11.356;2022-12-29T05:59:28;95291.00;;;7.60
54746;BMP180;40640;48.130;11.356;2022-12-29T06:03:34;95297.00;;;7.70
54746;BMP180;40640;48.130;11.356;2022-12-29T06:07:38;95308.00;;;7.60
54746;BMP180;40640;48.130;11.356;2022-12-29T06:11:41;95309.00;;;7.60
54746;BMP180;40640;48.130;11.356;2022-12-29T06:15:45;95303.00;;;7.50
54746;BMP180;40640;48.130;11.356;2022-12-29T06:19:47;95301.00;;;7.50
54746;BMP180;40640;48.130;11.356;2022-12-29T06:23:53;95314.00;;;7.50
54746;BMP180;40640;48.130;11.356;2022-12-29T06:27:56;95312.00;;;7.50
54746;BMP180;40640;48.130;11.356;2022-12-29T06:31:59;95310.00;;;7.50
54746;BMP180;40640;48.130;11.356;2022-12-29T06:36:05;95305.00;;;7.50
54746;BMP180;40640;48.130;11.356;2022-12-29T06:40:11;95306.00;;;7.40
54746;BMP180;40640;48.130;11.356;2022-12-29T06:44:32;95302.00;;;7.40
54746;BMP180;40640;48.130;11.356;2022-12-29T06:48:39;95308.00;;;7.40
54746;BMP180;40640;48.130;11.356;2022-12-29T06:52:43;95315.00;;;7.40
54746;BMP180;40640;48.130;11.356;2022-12-29T06:56:47;95306.00;;;7.40
54746;BMP180;40640;48.130;11.356;2022-12-29T07:00:50;95323.00;;;7.50
54746;BMP180;40640;48.130;11.356;2022-12-29T07:04:53;95331.00;;;7.50
54746;BMP180;40640;48.130;11.356;2022-12-29T07:08:56;95336.00;;;7.50
54746;BMP180;40640;48.130;11.356;2022-12-29T07:13:00;95340.00;;;7.40
54746;BMP180;40640;48.130;11.356;2022-12-29T07:17:03;95339.00;;;7.50
54746;BMP180;40640;48.130;11.356;2022-12-29T07:21:06;95342.00;;;7.50
54746;BMP180;40640;48.130;11.356;2022-12-29T07:25:09;95345.00;;;7.40
54746;BMP180;40640;48.130;11.356;2022-12-29T07:29:13;95354.00;;;7.40
54746;BMP180;40640;48.130;11.356;2022-12-29T07:33:16;95362.00;;;7.40
54746;BMP180;40640;48.130;11.356;2022-12-29T07:37:19;95365.00;;;7.50
54746;BMP180;40640;48.130;11.356;2022-12-29T07:41:24;95365.00;;;7.70
54746;BMP180;40640;48.130;11.356;2022-12-29T07:45:31;95369.00;;;7.60
54746;BMP180;40640;48.130;11.356;2022-12-29T07:49:42;95357.00;;;7.70
54746;BMP180;40640;48.130;11.356;2022-12-29T07:53:45;95358.00;;;7.80
54746;BMP180;40640;48.130;11.356;2022-12-29T07:57:48;95356.00;;;7.80
54746;BMP180;40640;48.130;11.356;2022-12-29T08:01:52;95364.00;;;7.90
54746;BMP180;40640;48.130;11.356;2022-12-29T08:05:56;95364.00;;;8.00
54746;BMP180;40640;48.130;11.356;2022-12-29T08:09:59;95352.00;;;8.00
54746;BMP180;40640;48.130;11.356;2022-12-29T08:14:03;95353.00;;;8.10
54746;BMP180;40640;48.130;11.356;2022-12-29T08:18:07;95351.00;;;8.00
54746;BMP180;40640;48.130;11.356;2022-12-29T08:22:09;95337.00;;;8.10
54746;BMP180;40640;48.130;11.356;2022-12-29T08:26:12;95351.00;;;8.20
54746;BMP180;40640;48.130;11.356;2022-12-29T08:30:15;95369.00;;;8.40
54746;BMP180;40640;48.130;11.356;2022-12-29T08:34:22;95360.00;;;8.50
54746;BMP180;40640;48.130;11.356;2022-12-29T08:38:27;95375.00;;;8.60
54746;BMP180;40640;48.130;11.356;2022-12-29T08:42:31;95363.00;;;8.70
54746;BMP180;40640;48.130;11.356;2022-12-29T08:46:34;95373.00;;;8.80
54746;BMP180;40640;48.130;11.356;2022-12-29T08:50:38;95382.00;;;8.90
54746;BMP180;40640;48.130;11.356;2022-12-29T08:54:43;95382.00;;;8.90
54746;BMP180;40640;48.130;11.356;2022-12-29T08:58:46;95403.00;;;9.00
54746;BMP180;40640;48.130;11.356;2022-12-29T09:02:48;95390.00;;;9.00
54746;BMP180;40640;48.130;11.356;2022-12-29T09:06:53;95402.00;;;9.00
54746;BMP180;40640;48.130;11.356;2022-12-29T09:11:05;95405.00;;;9.10
54746;BMP180;40640;48.130;11.356;2022-12-29T09:15:09;95403.00;;;9.20
54746;BMP180;40640;48.130;11.356;2022-12-29T09:19:12;95408.00;;;9.40
54746;BMP180;40640;48.130;11.356;2022-12-29T09:23:16;95411.00;;;9.50
54746;BMP180;40640;48.130;11.356;2022-12-29T09:27:19;95409.00;;;9.60
54746;BMP180;40640;48.130;11.356;2022-12-29T09:31:21;95406.00;;;9.70
54746;BMP180;40640;48.130;11.356;2022-12-29T09:35:24;95398.00;;;9.80
54746;BMP180;40640;48.130;11.356;2022-12-29T09:39:28;95410.00;;;9.90
54746;BMP180;40640;48.130;11.356;2022-12-29T09:44:03;95406.00;;;9.90
54746;BMP180;40640;48.130;11.356;2022-12-29T09:48:11;95406.00;;;9.90
54746;BMP180;40640;48.130;11.356;2022-12-29T09:52:20;95401.00;;;9.90
54746;BMP180;40640;48.130;11.356;2022-12-29T09:56:26;95395.00;;;9.90
54746;BMP180;40640;48.130;11.356;2022-12-29T10:00:36;95393.00;;;9.90
54746;BMP180;40640;48.130;11.356;2022-12-29T10:04:40;95387.00;;;9.90
54746;BMP180;40640;48.130;11.356;2022-12-29T10:08:47;95375.00;;;10.00
54746;BMP180;40640;48.130;11.356;2022-12-29T10:13:01;95385.00;;;10.00
54746;BMP180;40640;48.130;11.356;2022-12-29T10:17:16;95386.00;;;10.10
54746;BMP180;40640;48.130;11.356;2022-12-29T10:21:27;95388.00;;;10.20
54746;BMP180;40640;48.130;11.356;2022-12-29T10:25:37;95377.00;;;10.30
54746;BMP180;40640;48.130;11.356;2022-12-29T10:29:45;95369.00;;;10.50
54746;BMP180;40640;48.130;11.356;2022-12-29T10:33:50;95362.00;;;10.60
54746;BMP180;40640;48.130;11.356;2022-12-29T10:37:59;95363.00;;;10.80
54746;BMP180;40640;48.130;11.356;2022-12-29T10:42:09;95357.00;;;10.80
54746;BMP180;40640;48.130;11.356;2022-12-29T10:46:18;95347.00;;;11.00
54746;BMP180;40640;48.130;11.356;2022-12-29T10:50:24;95356.00;;;11.10
54746;BMP180;40640;48.130;11.356;2022-12-29T10:54:30;95353.00;;;11.20
54746;BMP180;40640;48.130;11.356;2022-12-29T10:58:35;95348.00;;;11.20
54746;BMP180;40640;48.130;11.356;2022-12-29T11:03:04;95339.00;;;11.50
54746;BMP180;40640;48.130;11.356;2022-12-29T11:07:11;95340.00;;;11.80
54746;BMP180;40640;48.130;11.356;2022-12-29T11:11:23;95339.00;;;12.30
54746;BMP180;40640;48.130;11.356;2022-12-29T11:15:28;95340.00;;;13.20
54746;BMP180;40640;48.130;11.356;2022-12-29T11:19:41;95339.00;;;14.10
54746;BMP180;40640;48.130;11.356;2022-12-29T11:23:56;95328.00;;;14.70
54746;BMP180;40640;48.130;11.356;2022-12-29T11:28:02;95340.00;;;15.00
54746;BMP180;40640;48.130;11.356;2022-12-29T11:32:11;95330.00;;;15.20
54746;BMP180;40640;48.130;11.356;2022-12-29T11:36:20;95326.00;;;15.30
54746;BMP180;40640;48.130;11.356;2022-12-29T11:40:24;95319.00;;;15.20
54746;BMP180;40640;48.130;11.356;2022-12-29T11:44:32;95324.00;;;15.60
54746;BMP180;40640;48.130;11.356;2022-12-29T11:48:39;95320.00;;;17.00
54746;BMP180;40640;48.130;11.356;2022-12-29T11:52:44;95331.00;;;17.40
54746;BMP180;40640;48.130;11.356;2022-12-29T11:56:48;95331.00;;;18.00
54746;BMP180;40640;48.130;11.356;2022-12-29T12:00:51;95333.00;;;17.90
54746;BMP180;40640;48.130;11.356;2022-12-29T12:04:59;95339.00;;;18.20
54746;BMP180;40640;48.130;11.356;2022-12-29T12:09:09;95329.00;;;18.20
54746;BMP180;40640;48.130;11.356;2022-12-29T12:13:19;95324.00;;;18.30
54746;BMP180;40640;48.130;11.356;2022-12-29T12:17:27;95325.00;;;17.80
54746;BMP180;40640;48.130;11.356;2022-12-29T12:21:40;95313.00;;;17.60
54746;BMP180;40640;48.130;11.356;2022-12-29T12:25:54;95321.00;;;17.70
54746;BMP180;40640;48.130;11.356;2022-12-29T12:30:01;95315.00;;;18.60
54746;BMP180;40640;48.130;11.356;2022-12-29T12:34:08;95313.00;;;18.40
54746;BMP180;40640;48.130;11.356;2022-12-29T12:38:20;95325.00;;;18.30
54746;BMP180;40640;48.130;11.356;2022-12-29T12:42:35;95307.00;;;17.50
54746;BMP180;40640;48.130;11.356;2022-12-29T12:51:13;95294.00;;;16.60
54746;BMP180;40640;48.130;11.356;2022-12-29T12:55:30;95294.00;;;16.30
54746;BMP180;40640;48.130;11.356;2022-12-29T12:59:46;95305.00;;;16.00
54746;BMP180;40640;48.130;11.356;2022-12-29T13:04:05;95305.00;;;15.70
54746;BMP180;40640;48.130;11.356;2022-12-29T13:12:52;95290.00;;;15.20
54746;BMP180;40640;48.130;11.356;2022-12-29T13:17:04;95294.00;;;15.10
54746;BMP180;40640;48.130;11.356;2022-12-29T13:21:16;95289.00;;;14.90
54746;BMP180;40640;48.130;11.356;2022-12-29T13:25:29;95274.00;;;14.80
54746;BMP180;40640;48.130;11.356;2022-12-29T13:29:37;95286.00;;;14.60
54746;BMP180;40640;48.130;11.356;2022-12-29T13:33:51;95285.00;;;14.50
54746;BMP180;40640;48.130;11.356;2022-12-29T13:38:02;95298.00;;;14.40
54746;BMP180;40640;48.130;11.356;2022-12-29T13:42:07;95292.00;;;14.30
54746;BMP180;40640;48.130;11.356;2022-12-29T13:46:13;95293.00;;;14.20
54746;BMP180;40640;48.130;11.356;2022-12-29T13:50:19;95286.00;;;14.10
54746;BMP180;40640;48.130;11.356;2022-12-29T13:54:32;95285.00;;;14.00
54746;BMP180;40640;48.130;11.356;2022-12-29T13:58:41;95283.00;;;13.90
54746;BMP180;40640;48.130;11.356;2022-12-29T14:03:04;95286.00;;;13.90
54746;BMP180;40640;48.130;11.356;2022-12-29T14:07:16;95286.00;;;13.80
54746;BMP180;40640;48.130;11.356;2022-12-29T14:11:22;95287.00;;;13.80
54746;BMP180;40640;48.130;11.356;2022-12-29T14:15:27;95294.00;;;13.70
54746;BMP180;40640;48.130;11.356;2022-12-29T14:19:38;95295.00;;;13.70
54746;BMP180;40640;48.130;11.356;2022-12-29T14:23:45;95281.00;;;13.70
54746;BMP180;40640;48.130;11.356;2022-12-29T14:27:53;95305.00;;;13.60
54746;BMP180;40640;48.130;11.356;2022-12-29T14:31:56;95291.00;;;13.50
54746;BMP180;40640;48.130;11.356;2022-12-29T14:36:21;95306.00;;;13.40
54746;BMP180;40640;48.130;11.356;2022-12-29T14:40:26;95302.00;;;13.40
54746;BMP180;40640;48.130;11.356;2022-12-29T14:44:29;95307.00;;;13.30
54746;BMP180;40640;48.130;11.356;2022-12-29T14:48:35;95306.00;;;13.20
54746;BMP180;40640;48.130;11.356;2022-12-29T14:52:45;95307.00;;;13.10
54746;BMP180;40640;48.130;11.356;2022-12-29T14:56:50;95305.00;;;13.30
54746;BMP180;40640;48.130;11.356;2022-12-29T15:00:53;95310.00;;;13.10
54746;BMP180;40640;48.130;11.356;2022-12-29T15:04:59;95306.00;;;13.20
54746;BMP180;40640;48.130;11.356;2022-12-29T15:09:06;95304.00;;;13.00
54746;BMP180;40640;48.130;11.356;2022-12-29T15:13:17;95307.00;;;13.00
54746;BMP180;40640;48.130;11.356;2022-12-29T15:17:26;95311.00;;;13.00
54746;BMP180;40640;48.130;11.356;2022-12-29T15:21:31;95302.00;;;13.00
54746;BMP180;40640;48.130;11.356;2022-12-29T15:25:35;95313.00;;;13.20
54746;BMP180;40640;48.130;11.356;2022-12-29T15:29:41;95316.00;;;13.00
54746;BMP180;40640;48.130;11.356;2022-12-29T15:33:46;95309.00;;;12.90
54746;BMP180;40640;48.130;11.356;2022-12-29T15:37:49;95303.00;;;12.80
54746;BMP180;40640;48.130;11.356;2022-12-29T15:41:56;95300.00;;;12.90
54746;BMP180;40640;48.130;11.356;2022-12-29T15:46:03;95300.00;;;12.70
54746;BMP180;40640;48.130;11.356;2022-12-29T15:50:14;95313.00;;;12.80
54746;BMP180;40640;48.130;11.356;2022-12-29T15:54:20;95318.00;;;12.80
54746;BMP180;40640;48.130;11.356;2022-12-29T15:58:26;95321.00;;;12.60
54746;BMP180;40640;48.130;11.356;2022-12-29T16:02:30;95326.00;;;12.50
54746;BMP180;40640;48.130;11.356;2022-12-29T16:06:36;95317.00;;;12.50
54746;BMP180;40640;48.130;11.356;2022-12-29T16:10:41;95318.00;;;12.30
54746;BMP180;40640;48.130;11.356;2022-12-29T16:14:46;95328.00;;;12.30
54746;BMP180;40640;48.130;11.356;2022-12-29T16:18:52;95329.00;;;12.50
54746;BMP180;40640;48.130;11.356;2022-12-29T16:22:59;95331.00;;;12.60
54746;BMP180;40640;48.130;11.356;2022-12-29T16:27:07;95332.00;;;12.60
54746;BMP180;40640;48.130;11.356;2022-12-29T16:31:18;95337.00;;;12.50
54746;BMP180;40640;48.130;11.356;2022-12-29T16:35:24;95343.00;;;12.60
54746;BMP180;40640;48.130;11.356;2022-12-29T16:39:33;95346.00;;;12.40
54746;BMP180;40640;48.130;11.356;2022-12-29T16:43:37;95348.00;;;12.40
54746;BMP180;40640;48.130;11.356;2022-12-29T16:47:43;95338.00;;;12.20
54746;BMP180;40640;48.130;11.356;2022-12-29T16:51:48;95345.00;;;12.20
54746;BMP180;40640;48.130;11.356;2022-12-29T16:55:53;95342.00;;;12.10
54746;BMP180;40640;48.130;11.356;2022-12-29T16:59:58;95363.00;;;12.30
54746;BMP180;40640;48.130;11.356;2022-12-29T17:04:05;95361.00;;;12.20
54746;BMP180;40640;48.130;11.356;2022-12-29T17:08:17;95351.00;;;12.10
54746;BMP180;40640;48.130;11.356;2022-12-29T17:12:25;95347.00;;;11.90
54746;BMP180;40640;48.130;11.356;2022-12-29T17:16:29;95352.00;;;12.00
54746;BMP180;40640;48.130;11.356;2022-12-29T17:20:32;95354.00;;;11.80
54746;BMP180;40640;48.130;11.356;2022-12-29T17:24:36;95348.00;;;11.80
54746;BMP180;40640;48.130;11.356;2022-12-29T17:28:40;95343.00;;;11.80
54746;BMP180;40640;48.130;11.356;2022-12-29T17:32:47;95348.00;;;11.80
54746;BMP180;40640;48.130;11.356;2022-12-29T17:36:51;95349.00;;;11.90
54746;BMP180;40640;48.130;11.356;2022-12-29T17:40:55;95349.00;;;11.80
54746;BMP180;40640;48.130;11.356;2022-12-29T17:45:00;95357.00;;;12.00
54746;BMP180;40640;48.130;11.356;2022-12-29T17:49:04;95346.00;;;12.00
54746;BMP180;40640;48.130;11.356;2022-12-29T17:53:11;95349.00;;;11.80
54746;BMP180;40640;48.130;11.356;2022-12-29T17:57:18;95356.00;;;11.80
54746;BMP180;40640;48.130;11.356;2022-12-29T18:01:21;95348.00;;;11.90
54746;BMP180;40640;48.130;11.356;2022-12-29T18:05:34;95359.00;;;11.90
54746;BMP180;40640;48.130;11.356;2022-12-29T18:09:37;95368.00;;;11.60
54746;BMP180;40640;48.130;11.356;2022-12-29T18:13:41;95361.00;;;11.70
54746;BMP180;40640;48.130;11.356;2022-12-29T18:17:48;95370.00;;;11.60
54746;BMP180;40640;48.130;11.356;2022-12-29T18:21:51;95361.00;;;11.60
54746;BMP180;40640;48.130;11.356;2022-12-29T18:25:55;95359.00;;;11.50
54746;BMP180;40640;48.130;11.356;2022-12-29T18:30:00;95360.00;;;11.50
54746;BMP180;40640;48.130;11.356;2022-12-29T18:34:12;95364.00;;;11.60
54746;BMP180;40640;48.130;11.356;2022-12-29T18:38:15;95360.00;;;11.40
54746;BMP180;40640;48.130;11.356;2022-12-29T18:42:17;95358.00;;;11.40
54746;BMP180;40640;48.130;11.356;2022-12-29T18:46:22;95359.00;;;11.40
54746;BMP180;40640;48.130;11.356;2022-12-29T18:50:25;95355.00;;;11.40
54746;BMP180;40640;48.130;11.356;2022-12-29T18:54:29;95368.00;;;11.50
54746;BMP180;40640;48.130;11.356;2022-12-29T18:58:32;95362.00;;;11.40
54746;BMP180;40640;48.130;11.356;2022-12-29T19:02:36;95359.00;;;11.50
54746;BMP180;40640;48.130;11.356;2022-12-29T19:06:40;95356.00;;;11.70
54746;BMP180;40640;48.130;11.356;2022-12-29T19:10:43;95366.00;;;11.60
54746;BMP180;40640;48.130;11.356;2022-12-29T19:14:46;95371.00;;;11.60
54746;BMP180;40640;48.130;11.356;2022-12-29T19:18:51;95368.00;;;11.60
54746;BMP180;40640;48.130;11.356;2022-12-29T19:23:11;95366.00;;;11.50
54746;BMP180;40640;48.130;11.356;2022-12-29T19:27:14;95365.00;;;11.70
54746;BMP180;40640;48.130;11.356;2022-12-29T19:31:17;95356.00;;;11.60
54746;BMP180;40640;48.130;11.356;2022-12-29T19:35:22;95363.00;;;11.70
54746;BMP180;40640;48.130;11.356;2022-12-29T19:39:25;95368.00;;;11.70
54746;BMP180;40640;48.130;11.356;2022-12-29T19:43:30;95367.00;;;11.90
54746;BMP180;40640;48.130;11.356;2022-12-29T19:47:32;95373.00;;;11.70
54746;BMP180;40640;48.130;11.356;2022-12-29T19:51:37;95380.00;;;11.70
54746;BMP180;40640;48.130;11.356;2022-12-29T19:55:41;95388.00;;;11.80
54746;BMP180;40640;48.130;11.356;2022-12-29T19:59:43;95376.00;;;11.70
54746;BMP180;40640;48.130;11.356;2022-12-29T20:03:46;95387.00;;;11.70
54746;BMP180;40640;48.130;11.356;2022-12-29T20:07:51;95378.00;;;11.80
54746;BMP180;40640;48.130;11.356;2022-12-29T20:11:54;95369.00;;;11.60
54746;BMP180;40640;48.130;11.356;2022-12-29T20:15:58;95357.00;;;11.30
54746;BMP180;40640;48.130;11.356;2022-12-29T20:20:04;95351.00;;;11.50
54746;BMP180;40640;48.130;11.356;2022-12-29T20:24:08;95369.00;;;11.60
54746;BMP180;40640;48.130;11.356;2022-12-29T20:28:11;95369.00;;;11.50
54746;BMP180;40640;48.130;11.356;2022-12-29T20:32:17;95367.00;;;11.60
54746;BMP180;40640;48.130;11.356;2022-12-29T20:36:21;95375.00;;;11.60
54746;BMP180;40640;48.130;11.356;2022-12-29T20:40:26;95370.00;;;11.50
54746;BMP180;40640;48.130;11.356;2022-12-29T20:44:30;95367.00;;;11.60
54746;BMP180;40640;48.130;11.356;2022-12-29T20:48:33;95365.00;;;11.40
54746;BMP180;40640;48.130;11.356;2022-12-29T20:52:39;95358.00;;;11.30
54746;BMP180;40640;48.130;11.356;2022-12-29T20:56:43;95347.00;;;11.50
54746;BMP180;40640;48.130;11.356;2022-12-29T21:00:46;95343.00;;;11.30
54746;BMP180;40640;48.130;11.356;2022-12-29T21:04:49;95340.00;;;11.30
54746;BMP180;40640;48.130;11.356;2022-12-29T21:09:12;95323.00;;;11.30
54746;BMP180;40640;48.130;11.356;2022-12-29T21:13:16;95339.00;;;11.30
54746;BMP180;40640;48.130;11.356;2022-12-29T21:17:19;95343.00;;;11.40
54746;BMP180;40640;48.130;11.356;2022-12-29T21:21:23;95341.00;;;11.40
54746;BMP180;40640;48.130;11.356;2022-12-29T21:25:27;95348.00;;;11.20
54746;BMP180;40640;48.130;11.356;2022-12-29T21:29:39;95337.00;;;11.20
54746;BMP180;40640;48.130;11.356;2022-12-29T21:33:42;95347.00;;;11.20
54746;BMP180;40640;48.130;11.356;2022-12-29T21:37:45;95345.00;;;11.10
54746;BMP180;40640;48.130;11.356;2022-12-29T21:41:47;95344.00;;;11.40
54746;BMP180;40640;48.130;11.356;2022-12-29T21:45:51;95342.00;;;11.30
54746;BMP180;40640;48.130;11.356;2022-12-29T21:49:54;95358.00;;;11.20
54746;BMP180;40640;48.130;11.356;2022-12-29T21:53:59;95363.00;;;11.20
54746;BMP180;40640;48.130;11.356;2022-12-29T21:58:23;95384.00;;;11.10
54746;BMP180;40640;48.130;11.356;2022-12-29T22:02:44;95379.00;;;11.10
54746;BMP180;40640;48.130;11.356;2022-12-29T22:07:06;95381.00;;;11.10
54746;BMP180;40640;48.130;11.356;2022-12-29T22:11:27;95381.00;;;11.10
54746;BMP180;40640;48.130;11.356;2022-12-29T22:15:47;95376.00;;;11.10
54746;BMP180;40640;48.130;11.356;2022-12-29T22:19:51;95385.00;;;11.10
54746;BMP180;40640;48.130;11.356;2022-12-29T22:23:54;95373.00;;;11.00
54746;BMP180;40640;48.130;11.356;2022-12-29T22:27:57;95388.00;;;11.10
54746;BMP180;40640;48.130;11.356;2022-12-29T22:32:00;95404.00;;;11.00
54746;BMP180;40640;48.130;11.356;2022-12-29T22:36:05;95396.00;;;11.10
54746;BMP180;40640;48.130;11.356;2022-12-29T22:40:10;95414.00;;;11.00
54746;BMP180;40640;48.130;11.356;2022-12-29T22:44:13;95413.00;;;11.00
54746;BMP180;40640;48.130;11.356;2022-12-29T22:48:15;95418.00;;;11.00
54746;BMP180;40640;48.130;11.356;2022-12-29T22:52:20;95423.00;;;11.10
54746;BMP180;40640;48.130;11.356;2022-12-29T22:56:22;95430.00;;;11.10
54746;BMP180;40640;48.130;11.356;2022-12-29T23:00:25;95431.00;;;11.00
54746;BMP180;40640;48.130;11.356;2022-12-29T23:04:28;95440.00;;;11.00
54746;BMP180;40640;48.130;11.356;2022-12-29T23:08:53;95441.00;;;11.20
54746;BMP180;40640;48.130;11.356;2022-12-29T23:12:57;95452.00;;;11.00
54746;BMP180;40640;48.130;11.356;2022-12-29T23:17:00;95442.00;;;10.80
54746;BMP180;40640;48.130;11.356;2022-12-29T23:21:03;95448.00;;;10.90
54746;BMP180;40640;48.130;11.356;2022-12-29T23:25:08;95448.00;;;10.90
54746;BMP180;40640;48.130;11.356;2022-12-29T23:29:13;95461.00;;;10.80
54746;BMP180;40640;48.130;11.356;2022-12-29T23:33:16;95458.00;;;11.00
54746;BMP180;40640;48.130;11.356;2022-12-29T23:37:19;95466.00;;;11.10
54746;BMP180;40640;48.130;11.356;2022-12-29T23:41:23;95463.00;;;11.00
54746;BMP180;40640;48.130;11.356;2022-12-29T23:45:26;95471.00;;;10.90